Time;durP1;ratioP1;P1;durP2;ratioP2;P2;SDS_P1;SDS_P2;PMS_P1;PMS_P2;Temp;Humidity;BMP_temperature;BMP_pressure;BME280_temperature;BME280_humidity;BME280_pressure;Samples;Min_cycle;Max_cycle;Signal;HPM_P1;HPM_P2
2022/03/22 00:01:47;;;;;;;33.33;17.60;;;;;;;2.62;58.89;96310.13;4975357;28;20643;-77
2022/03/22 00:04:14;;;;;;;34.83;17.02;;;;;;;2.63;58.87;96306.66;4975274;28;20208;-77
2022/03/22 00:06:43;;;;;;;30.67;15.85;;;;;;;2.63;58.49;96296.28;4927411;28;20632;-77
2022/03/22 00:09:10;;;;;;;28.30;16.65;;;;;;;2.66;58.60;96302.22;4975172;28;20205;-77
2022/03/22 00:11:37;;;;;;;26.10;15.37;;;;;;;2.71;58.26;96294.28;4975412;28;20216;-77
2022/03/22 00:14:06;;;;;;;28.50;16.70;;;;;;;2.76;58.05;96284.63;4975118;28;20800;-77
2022/03/22 00:16:33;;;;;;;35.38;18.60;;;;;;;2.75;58.49;96288.13;4974998;28;20533;-77
2022/03/22 00:19:00;;;;;;;32.20;16.95;;;;;;;2.76;58.17;96288.06;4974825;28;20217;-78
2022/03/22 00:21:26;;;;;;;26.90;16.38;;;;;;;2.75;58.24;96285.53;4943086;28;20765;-77
2022/03/22 00:23:55;;;;;;;29.23;17.50;;;;;;;2.64;57.64;96288.47;5007492;28;20558;-77
2022/03/22 00:26:22;;;;;;;26.25;15.85;;;;;;;2.57;57.77;96280.91;5055827;28;20486;-77
2022/03/22 00:52:24;;;;;;;27.50;15.65;;;;;;;2.20;58.56;96296.72;5054279;28;20201;-76
2022/03/22 00:54:51;;;;;;;25.00;14.70;;;;;;;2.26;58.37;96281.00;5055307;28;20233;-77
2022/03/22 00:57:19;;;;;;;27.38;15.68;;;;;;;2.27;58.35;96282.69;5055221;28;20676;-77
2022/03/22 01:00:05;;;;;;;23.33;14.80;;;;;;;2.27;57.56;96277.50;5020753;28;20204;-77
2022/03/22 01:02:37;;;;;;;27.83;14.52;;;;;;;2.39;56.59;96287.53;5054803;28;20730;-77
2022/03/22 01:05:07;;;;;;;29.63;15.75;;;;;;;2.35;56.39;96297.13;5054985;28;20202;-78
2022/03/22 01:07:35;;;;;;;28.63;17.25;;;;;;;2.16;57.42;96283.88;5054798;28;20276;-78
2022/03/22 01:10:05;;;;;;;30.92;17.35;;;;;;;2.33;57.38;96270.44;5055194;28;20220;-77
2022/03/22 01:15:54;;;;;;;28.10;16.20;;;;;;;2.57;57.83;96280.91;5053889;28;20186;-78
2022/03/22 01:18:21;;;;;;;32.22;18.20;;;;;;;2.53;58.87;96271.53;5053002;28;20217;-78
2022/03/22 01:20:50;;;;;;;26.98;16.13;;;;;;;2.57;59.56;96271.38;5053090;28;20195;-78
2022/03/22 01:23:20;;;;;;;35.13;19.42;;;;;;;2.60;60.07;96271.31;5034666;28;20201;-77
2022/03/22 01:25:48;;;;;;;32.95;18.52;;;;;;;2.63;60.67;96275.56;5050715;28;20286;-78
2022/03/22 01:28:15;;;;;;;35.45;19.17;;;;;;;2.67;60.42;96262.44;5052794;28;20339;-77
2022/03/22 01:30:42;;;;;;;33.95;17.88;;;;;;;2.69;60.26;96262.41;5054176;28;20202;-77
2022/03/22 01:33:11;;;;;;;22.53;15.47;;;;;;;2.70;59.85;96253.72;5054146;28;20211;-78
2022/03/22 01:35:39;;;;;;;23.10;14.32;;;;;;;2.74;59.67;96247.53;5054089;28;20471;-78
2022/03/22 01:38:06;;;;;;;23.50;14.60;;;;;;;2.82;59.65;96249.88;5054692;28;20199;-77
2022/03/22 01:40:35;;;;;;;26.02;15.00;;;;;;;2.84;59.00;96254.09;5054117;28;20637;-77
2022/03/22 01:43:02;;;;;;;24.25;15.30;;;;;;;2.89;58.60;96246.19;5054413;28;20217;-77
2022/03/22 01:45:29;;;;;;;24.92;13.88;;;;;;;2.93;57.77;96248.66;5054048;28;20198;-78
2022/03/22 01:47:59;;;;;;;24.65;15.00;;;;;;;2.92;57.38;96244.38;5035614;28;20223;-78
2022/03/22 01:50:26;;;;;;;23.73;14.87;;;;;;;2.94;57.54;96239.13;5053907;28;20206;-78
2022/03/22 01:52:56;;;;;;;23.38;14.98;;;;;;;2.97;57.22;96234.69;5054336;28;20444;-78
2022/03/22 01:55:25;;;;;;;24.10;15.10;;;;;;;3.05;57.46;96247.38;5054245;28;20242;-78
2022/03/22 01:57:54;;;;;;;28.83;14.50;;;;;;;3.09;57.34;96244.63;5053771;28;20445;-78
2022/03/22 02:00:21;;;;;;;25.63;15.18;;;;;;;3.10;57.69;96248.06;5054119;28;20448;-77
2022/03/22 02:09:04;;;;;;;19.77;13.05;;;;;;;3.15;57.18;96232.34;5053912;28;20281;-77
2022/03/22 02:11:31;;;;;;;30.60;14.73;;;;;;;3.17;56.76;96239.16;5036335;28;20268;-78
2022/03/22 02:14:00;;;;;;;24.33;14.90;;;;;;;3.13;57.27;96240.19;5053590;28;20487;-78
2022/03/22 02:16:27;;;;;;;23.27;16.47;;;;;;;3.01;57.98;96240.59;5053653;28;20437;-78
2022/03/22 02:18:54;;;;;;;20.77;13.93;;;;;;;3.02;58.31;96240.56;5054284;28;20440;-77
2022/03/22 02:24:44;;;;;;;26.30;14.43;;;;;;;3.00;59.65;96225.94;5052551;28;20851;-77
2022/03/22 02:27:12;;;;;;;21.23;13.90;;;;;;;3.07;59.48;96235.22;5053662;28;20225;-77
2022/03/22 02:29:39;;;;;;;20.42;13.70;;;;;;;3.07;58.82;96228.28;5052740;28;20206;-78
2022/03/22 02:32:07;;;;;;;24.60;13.07;;;;;;;3.07;59.17;96230.88;5033954;28;20571;-78
2022/03/22 02:34:36;;;;;;;20.90;13.25;;;;;;;3.09;59.13;96234.25;5052643;28;20300;-77
2022/03/22 02:37:04;;;;;;;21.25;13.20;;;;;;;3.03;58.57;96229.28;5033952;28;20199;-77
2022/03/22 02:39:31;;;;;;;22.10;14.35;;;;;;;3.00;59.27;96224.19;5052321;28;20210;-78
2022/03/22 02:42:00;;;;;;;25.03;13.33;;;;;;;2.95;59.91;96220.06;5052135;28;20203;-79
2022/03/22 02:44:27;;;;;;;24.35;13.90;;;;;;;2.97;59.56;96231.25;5052512;28;20442;-79
2022/03/22 02:46:53;;;;;;;29.77;13.80;;;;;;;2.88;59.08;96240.16;5033336;28;20219;-78
2022/03/22 02:49:21;;;;;;;20.20;15.00;;;;;;;2.82;59.81;96230.00;5052375;28;20200;-78
2022/03/22 02:51:48;;;;;;;21.07;13.60;;;;;;;2.89;60.37;96235.81;5051969;28;20206;-78
2022/03/22 02:54:14;;;;;;;20.07;13.10;;;;;;;2.91;60.13;96228.84;5052274;28;20445;-78
2022/03/22 02:56:41;;;;;;;18.87;12.67;;;;;;;2.87;59.95;96228.09;5051857;28;20463;-78
2022/03/22 02:59:10;;;;;;;28.20;13.30;;;;;;;2.87;60.58;96229.84;5052241;28;20456;-78
2022/03/22 03:01:36;;;;;;;22.52;14.43;;;;;;;2.82;60.83;96235.16;5033622;28;20461;-75
2022/03/22 03:04:04;;;;;;;27.08;14.85;;;;;;;2.68;60.30;96239.97;5052353;28;20216;-78
2022/03/22 03:06:31;;;;;;;32.10;19.63;;;;;;;2.14;62.99;96243.38;5052325;28;20294;-79
2022/03/22 03:08:58;;;;;;;30.80;18.20;;;;;;;2.25;62.60;96243.91;5052165;28;20217;-79
2022/03/22 03:11:26;;;;;;;27.27;18.55;;;;;;;2.29;63.18;96245.50;5056854;28;20195;-78
2022/03/22 03:16:52;;;;;;;30.38;18.75;;;;;;;2.37;62.85;96250.47;4996004;28;20201;-79
2022/03/22 03:19:19;;;;;;;27.65;17.77;;;;;;;2.39;62.17;96246.91;4995662;28;20266;-79
2022/03/22 03:21:46;;;;;;;31.17;18.23;;;;;;;2.44;62.21;96233.81;4995500;28;20190;-78
2022/03/22 03:24:12;;;;;;;25.63;17.90;;;;;;;2.39;62.28;96243.50;4963451;28;20208;-78
2022/03/22 03:26:39;;;;;;;34.13;15.88;;;;;;;2.37;62.46;96240.94;4995418;28;20229;-78
2022/03/22 03:29:06;;;;;;;30.65;14.40;;;;;;;2.30;62.18;96241.16;4995191;28;20235;-78
2022/03/22 03:31:33;;;;;;;30.92;20.23;;;;;;;2.19;63.19;96236.31;4995076;28;20208;-78
2022/03/22 03:34:01;;;;;;;33.58;20.08;;;;;;;2.20;63.18;96240.59;4995325;28;20201;-77
2022/03/22 03:36:28;;;;;;;31.75;17.50;;;;;;;2.17;63.17;96240.69;4995123;28;20190;-78
2022/03/22 03:38:55;;;;;;;32.38;21.30;;;;;;;1.99;63.83;96242.09;4995651;28;20216;-79
2022/03/22 03:47:07;;;;;;;32.83;19.42;;;;;;;1.64;65.21;96240.53;4994259;28;20193;-81
2022/03/22 03:52:56;;;;;;;31.67;18.45;;;;;;;1.50;65.96;96237.50;5055002;28;20205;-78
2022/03/22 03:55:23;;;;;;;33.03;16.58;;;;;;;1.48;65.83;96226.34;5056595;28;20242;-79
2022/03/22 03:57:50;;;;;;;19.30;14.63;;;;;;;1.56;65.68;96232.13;5037880;28;20643;-79
2022/03/22 04:00:18;;;;;;;24.15;15.38;;;;;;;1.61;65.12;96237.19;5056345;28;20192;-79
2022/03/22 04:02:44;;;;;;;21.52;12.90;;;;;;;1.66;65.43;96232.72;5055846;28;20204;-78
2022/03/22 04:05:11;;;;;;;20.55;13.55;;;;;;;1.71;64.24;96236.88;5056339;28;20185;-78
2022/03/22 04:07:39;;;;;;;24.98;14.02;;;;;;;1.68;64.44;96233.53;5051411;28;20575;-79
2022/03/22 04:10:07;;;;;;;31.52;14.65;;;;;;;1.72;64.63;96235.13;5036345;28;20184;-80
2022/03/22 04:12:42;;;;;;;24.85;15.93;;;;;;;1.75;64.48;96248.84;5035953;28;20210;-79
2022/03/22 04:15:09;;;;;;;24.90;15.95;;;;;;;1.79;64.34;96241.84;5050834;28;20656;-79
2022/03/22 04:17:38;;;;;;;19.88;13.90;;;;;;;1.80;64.48;96239.22;5017610;28;20222;-79
2022/03/22 04:20:07;;;;;;;20.02;14.50;;;;;;;1.82;64.40;96236.56;5036261;28;20230;-77
2022/03/22 04:22:34;;;;;;;28.27;13.45;;;;;;;1.80;63.62;96235.78;5000541;28;20269;-81
2022/03/22 04:25:04;;;;;;;26.27;14.43;;;;;;;1.80;63.17;96234.03;5035955;28;20186;-78
2022/03/22 04:33:01;;;;;;;22.17;13.20;;;;;;;1.83;61.39;96231.34;5035518;28;20196;-78
2022/03/22 04:35:28;;;;;;;26.65;13.27;;;;;;;1.87;61.48;96226.94;5034660;28;20198;-78
2022/03/22 04:37:56;;;;;;;26.60;13.80;;;;;;;1.88;62.11;96235.53;5035276;28;20203;-78
2022/03/22 04:40:25;;;;;;;27.95;13.95;;;;;;;1.98;62.40;96234.38;5035747;28;20271;-78
2022/03/22 04:42:53;;;;;;;37.25;15.82;;;;;;;2.11;61.94;96235.72;5035249;28;20212;-78
2022/03/22 04:45:20;;;;;;;21.70;12.95;;;;;;;2.30;61.51;96234.22;5036145;28;20190;-78
2022/03/22 04:47:47;;;;;;;21.13;12.32;;;;;;;2.58;60.30;96230.78;5035438;28;20218;-80
2022/03/22 04:50:16;;;;;;;28.60;16.17;;;;;;;2.72;59.37;96229.44;5035468;28;20187;-79
2022/03/22 04:58:53;;;;;;;37.10;21.17;;;;;;;3.20;58.09;96207.13;4974801;28;20553;-79
2022/03/22 05:01:19;;;;;;;29.75;18.00;;;;;;;3.33;57.87;96231.72;4974078;28;20450;-78
2022/03/22 05:03:46;;;;;;;30.50;16.03;;;;;;;3.56;57.71;96215.34;4974048;28;20235;-79
2022/03/22 05:06:31;;;;;;;34.33;19.90;;;;;;;3.87;56.38;96233.25;4973995;28;20519;-77
2022/03/22 05:08:58;;;;;;;26.10;19.13;;;;;;;4.07;55.38;96238.53;4973997;28;20492;-77
2022/03/22 05:11:24;;;;;;;35.03;18.60;;;;;;;4.03;56.18;96223.94;4973951;28;20449;-77
2022/03/22 05:13:54;;;;;;;34.13;20.33;;;;;;;4.31;55.36;96227.19;4974072;28;20949;-78
2022/03/22 05:16:21;;;;;;;38.67;20.73;;;;;;;4.04;55.61;96236.88;4973890;28;20810;-78
2022/03/22 05:18:48;;;;;;;36.90;22.40;;;;;;;4.31;55.39;96236.72;4973863;28;20485;-82
2022/03/22 05:21:15;;;;;;;33.20;22.40;;;;;;;4.69;55.30;96222.25;4973546;28;20481;-78
2022/03/22 05:23:42;;;;;;;36.00;21.33;;;;;;;5.19;54.01;96224.50;4973747;28;20821;-78
2022/03/22 05:26:09;;;;;;;41.40;24.20;;;;;;;5.33;51.83;96235.19;4974210;28;20539;-79
2022/03/22 05:28:37;;;;;;;38.13;21.33;;;;;;;5.73;51.77;96230.84;4973350;28;20492;-79
2022/03/22 05:31:05;;;;;;;35.50;22.03;;;;;;;5.86;50.13;96224.19;4973588;28;20452;-78
2022/03/22 05:33:32;;;;;;;38.00;23.43;;;;;;;6.18;50.95;96227.97;4973134;28;20817;-78
2022/03/22 05:36:00;;;;;;;35.17;22.57;;;;;;;6.66;49.47;96219.59;5006642;28;20788;-79
2022/03/22 05:38:26;;;;;;;35.30;21.80;;;;;;;7.02;47.13;96224.78;5034573;28;20483;-80
2022/03/22 05:40:53;;;;;;;37.73;21.13;;;;;;;6.87;46.97;96232.50;5034410;28;20439;-81
2022/03/22 05:43:20;;;;;;;36.50;25.17;;;;;;;6.76;47.95;96233.03;4999406;28;20550;-79
2022/03/22 05:45:48;;;;;;;42.30;25.60;;;;;;;7.06;47.54;96217.66;5034900;28;20454;-78
2022/03/22 05:48:17;;;;;;;41.13;24.03;;;;;;;7.45;47.00;96220.00;5034133;28;20576;-78
2022/03/22 05:50:44;;;;;;;39.40;24.77;;;;;;;7.80;45.28;96199.03;5034738;28;20805;-78
2022/03/22 05:53:11;;;;;;;38.70;23.30;;;;;;;8.03;45.35;96209.94;5034695;28;20446;-80
2022/03/22 05:55:38;;;;;;;47.37;23.50;;;;;;;8.35;44.41;96208.22;5048796;28;20474;-82
2022/03/22 05:58:05;;;;;;;32.90;21.37;;;;;;;8.40;43.82;96196.72;5037587;28;20450;-79
2022/03/22 06:00:32;;;;;;;37.60;24.77;;;;;;;8.54;44.60;96195.00;5018502;28;20956;-77
2022/03/22 06:03:00;;;;;;;37.80;22.60;;;;;;;8.76;44.43;96202.50;5054292;28;20458;-78
2022/03/22 06:05:29;;;;;;;33.40;22.60;;;;;;;9.04;42.89;96207.00;5053020;28;20516;-79
2022/03/22 06:07:56;;;;;;;34.97;20.83;;;;;;;9.37;41.96;96200.72;5054006;28;20441;-77
2022/03/22 06:10:23;;;;;;;32.73;21.40;;;;;;;9.69;44.77;96209.28;5054029;28;20445;-80
2022/03/22 06:12:52;;;;;;;32.60;21.13;;;;;;;9.79;40.41;96205.16;5053862;28;20455;-79
2022/03/22 06:15:21;;;;;;;36.70;24.00;;;;;;;9.79;40.16;96221.72;5053460;28;20453;-79
2022/03/22 06:17:49;;;;;;;34.47;21.33;;;;;;;9.97;39.60;96214.53;5053648;28;20940;-79
2022/03/22 06:20:17;;;;;;;47.33;27.97;;;;;;;9.98;39.94;96212.75;5054143;28;20446;-79
2022/03/22 06:22:46;;;;;;;43.47;24.63;;;;;;;9.89;40.84;96199.28;5053682;28;20450;-79
2022/03/22 06:25:14;;;;;;;47.20;28.10;;;;;;;10.16;40.55;96194.13;5053748;28;20937;-79
2022/03/22 06:27:41;;;;;;;44.57;29.47;;;;;;;10.52;39.58;96185.72;5034843;28;20453;-78
2022/03/22 06:30:10;;;;;;;41.43;26.93;;;;;;;11.07;39.75;96187.41;5053319;28;20492;-78
2022/03/22 06:32:42;;;;;;;51.50;30.87;;;;;;;11.61;37.08;96192.53;5053826;28;20442;-78
2022/03/22 06:35:10;;;;;;;57.20;31.87;;;;;;;11.98;36.29;96184.78;5053690;28;20515;-78
2022/03/22 06:37:37;;;;;;;51.80;30.27;;;;;;;12.43;35.53;96185.09;5053620;28;20438;-79
2022/03/22 06:40:06;;;;;;;42.37;24.83;;;;;;;12.79;33.81;96171.94;5053370;28;20548;-77
2022/03/22 06:42:34;;;;;;;48.67;26.73;;;;;;;13.12;32.86;96167.75;5053484;28;20455;-80
2022/03/22 06:45:03;;;;;;;30.57;19.80;;;;;;;13.20;31.90;96176.78;5052702;28;20440;-79
2022/03/22 06:47:30;;;;;;;24.57;18.00;;;;;;;13.02;30.05;96179.00;5057819;28;20434;-79
2022/03/22 06:49:57;;;;;;;24.50;15.90;;;;;;;12.67;29.35;96178.91;5053466;28;20482;-78
2022/03/22 06:52:23;;;;;;;24.40;13.60;;;;;;;12.62;28.42;96167.03;5053277;28;20530;-79
2022/03/22 06:54:50;;;;;;;19.13;12.60;;;;;;;12.14;28.17;96174.84;5018230;28;20980;-78
2022/03/22 06:57:19;;;;;;;16.37;12.47;;;;;;;11.41;29.11;96174.63;5053599;28;20446;-78
2022/03/22 06:59:46;;;;;;;22.90;12.90;;;;;;;11.03;29.64;96175.41;5053275;28;20535;-78
2022/03/22 07:02:12;;;;;;;51.73;28.20;;;;;;;10.55;34.35;96168.94;5053569;28;20426;-77
2022/03/22 07:04:39;;;;;;;57.20;28.77;;;;;;;10.01;35.23;96178.47;5052409;28;20453;-78
2022/03/22 07:07:07;;;;;;;41.33;20.93;;;;;;;9.64;34.79;96170.25;5051961;28;20804;-78
2022/03/22 07:09:34;;;;;;;25.83;17.03;;;;;;;9.34;34.22;96169.47;5052607;28;20539;-78
2022/03/22 07:12:01;;;;;;;23.87;12.97;;;;;;;9.17;34.10;96173.91;5053414;28;20936;-79
2022/03/22 07:14:29;;;;;;;17.07;12.10;;;;;;;9.13;34.64;96177.66;5052834;28;21176;-79
2022/03/22 07:16:56;;;;;;;18.10;13.30;;;;;;;9.06;35.40;96180.72;5053095;28;20925;-79
2022/03/22 07:19:24;;;;;;;22.13;15.67;;;;;;;9.43;34.10;96176.78;5053142;28;20437;-78
2022/03/22 07:21:52;;;;;;;33.30;20.17;;;;;;;9.90;32.83;96177.38;5053258;28;20445;-78
2022/03/22 07:24:19;;;;;;;21.77;14.70;;;;;;;10.25;32.48;96171.72;5053505;28;20916;-78
2022/03/22 07:26:46;;;;;;;16.47;11.80;;;;;;;10.26;32.43;96159.47;5052720;28;20441;-78
2022/03/22 07:29:14;;;;;;;20.80;12.37;;;;;;;10.28;36.93;96166.28;5053092;28;20485;-79
2022/03/22 07:31:42;;;;;;;22.87;13.83;;;;;;;10.30;33.21;96164.41;5018071;28;20813;-78
2022/03/22 07:34:12;;;;;;;20.93;12.13;;;;;;;10.24;33.07;96159.56;5052878;28;20453;-79
2022/03/22 07:36:39;;;;;;;18.50;12.23;;;;;;;10.15;32.99;96165.38;5052417;28;20990;-77
2022/03/22 07:39:06;;;;;;;22.57;14.80;;;;;;;10.07;33.32;96168.44;5052323;28;20453;-77
2022/03/22 07:41:33;;;;;;;18.37;12.60;;;;;;;9.92;33.20;96164.16;5052226;28;20449;-79
2022/03/22 07:44:01;;;;;;;21.00;13.50;;;;;;;9.96;33.44;96157.78;5052387;28;20921;-79
2022/03/22 07:46:28;;;;;;;19.80;12.97;;;;;;;9.79;33.94;96164.06;5051853;28;20537;-79
2022/03/22 07:52:57;;;;;;;20.17;13.23;;;;;;;9.56;34.74;96164.63;5052448;28;20513;-79
2022/03/22 07:54:28;;;;;;;17.67;12.83;;;;;;;9.35;35.19;96164.13;5052726;28;20412;-79
2022/03/22 07:56:55;;;;;;;21.50;14.00;;;;;;;9.32;37.98;96175.66;5054726;28;20470;-79
2022/03/22 07:59:24;;;;;;;19.70;14.53;;;;;;;9.21;36.60;96172.78;5056088;28;20805;-78
2022/03/22 08:01:51;;;;;;;22.77;13.60;;;;;;;9.10;37.02;96164.75;5056596;28;20825;-78
2022/03/22 08:04:19;;;;;;;20.80;14.20;;;;;;;9.15;36.19;96167.09;5056569;28;20453;-79
2022/03/22 08:06:46;;;;;;;20.37;14.50;;;;;;;9.19;36.55;96163.34;5056012;28;21179;-78
2022/03/22 08:09:14;;;;;;;24.83;14.50;;;;;;;9.17;36.42;96160.81;5055947;28;20960;-78
2022/03/22 08:11:42;;;;;;;26.80;14.50;;;;;;;9.20;37.08;96159.78;5056456;28;20441;-78
2022/03/22 08:14:10;;;;;;;23.17;14.00;;;;;;;9.35;36.99;96158.91;5056079;28;20446;-77
2022/03/22 08:16:37;;;;;;;28.23;15.70;;;;;;;9.28;37.43;96163.66;5056136;28;20925;-78
2022/03/22 08:19:05;;;;;;;21.83;14.57;;;;;;;9.22;38.08;96171.84;5055914;28;20979;-78
2022/03/22 08:21:33;;;;;;;22.63;14.10;;;;;;;9.00;38.88;96153.97;5055871;28;20923;-79
2022/03/22 08:24:00;;;;;;;27.33;15.50;;;;;;;8.87;40.15;96158.22;5056236;28;20772;-80
2022/03/22 08:26:28;;;;;;;23.60;15.03;;;;;;;8.84;39.52;96168.03;5056060;28;20453;-79
2022/03/22 08:28:55;;;;;;;22.00;14.17;;;;;;;8.50;39.59;96169.94;5055863;28;20477;-78
2022/03/22 08:31:22;;;;;;;24.07;13.37;;;;;;;8.39;41.50;96167.09;5037026;28;20434;-78
2022/03/22 08:33:49;;;;;;;26.97;15.60;;;;;;;8.35;43.08;96168.16;5055913;28;20465;-79
2022/03/22 08:36:16;;;;;;;22.50;15.13;;;;;;;8.40;44.02;96168.78;5055772;28;20449;-78
2022/03/22 08:38:44;;;;;;;33.40;16.50;;;;;;;8.37;44.61;96174.16;5055533;28;20452;-79
2022/03/22 08:41:11;;;;;;;24.27;14.37;;;;;;;8.38;44.69;96154.91;5020486;28;20812;-79
2022/03/22 08:43:38;;;;;;;19.80;14.00;;;;;;;8.44;45.60;96161.59;5055464;28;20449;-78
2022/03/22 08:46:06;;;;;;;20.73;11.77;;;;;;;8.33;46.32;96157.78;5055058;28;20468;-79
2022/03/22 08:48:34;;;;;;;23.97;11.13;;;;;;;8.38;46.42;96157.53;5054047;28;20449;-79
2022/03/22 08:51:01;;;;;;;22.57;12.07;;;;;;;8.43;46.37;96158.13;5053904;28;20474;-78
2022/03/22 08:53:30;;;;;;;23.00;12.97;;;;;;;8.59;46.69;96150.25;5053740;28;20933;-78
2022/03/22 08:56:02;;;;;;;22.60;13.73;;;;;;;8.77;47.04;96156.22;5054099;28;20477;-78
2022/03/22 08:58:29;;;;;;;24.73;13.43;;;;;;;8.87;46.81;96150.34;5054122;28;20445;-77
2022/03/22 09:00:56;;;;;;;20.63;13.23;;;;;;;8.91;45.60;96148.41;5055056;28;20827;-78
2022/03/22 09:03:26;;;;;;;28.83;13.93;;;;;;;8.89;45.21;96142.41;5054785;28;20460;-79
2022/03/22 09:06:12;;;;;;;25.20;14.33;;;;;;;9.07;45.59;96133.50;5055352;28;20442;-77
2022/03/22 09:08:41;;;;;;;20.70;14.23;;;;;;;9.20;46.13;96139.69;5053923;28;20840;-78
2022/03/22 09:11:10;;;;;;;19.33;11.73;;;;;;;9.23;46.00;96129.03;5055446;28;20529;-79
2022/03/22 09:13:39;;;;;;;21.13;12.63;;;;;;;9.29;46.24;96127.84;5054599;28;20454;-78
2022/03/22 09:16:09;;;;;;;29.97;15.27;;;;;;;9.51;48.36;96124.75;5019511;28;21254;-79
2022/03/22 09:18:36;;;;;;;21.70;14.93;;;;;;;9.58;45.62;96131.31;5054898;28;20495;-77
2022/03/22 09:21:03;;;;;;;23.03;14.53;;;;;;;9.60;46.26;96132.91;5054774;28;20449;-79
2022/03/22 09:23:30;;;;;;;20.33;11.93;;;;;;;9.46;46.31;96132.88;5054931;28;20464;-78
2022/03/22 09:25:57;;;;;;;19.30;12.80;;;;;;;9.49;46.92;96137.09;5035875;28;20438;-79
2022/03/22 09:28:25;;;;;;;22.93;15.83;;;;;;;9.32;46.92;96138.13;5054668;28;20437;-79
2022/03/22 09:30:52;;;;;;;22.23;13.60;;;;;;;9.37;47.47;96133.44;5054753;28;20489;-79
2022/03/22 09:33:20;;;;;;;19.40;12.47;;;;;;;9.41;47.15;96123.63;5054759;28;20445;-79
2022/03/22 09:35:47;;;;;;;16.73;11.77;;;;;;;9.51;47.31;96119.50;5054608;28;20774;-78
2022/03/22 09:38:15;;;;;;;24.47;14.40;;;;;;;9.68;48.06;96111.47;5054410;28;20446;-78
2022/03/22 09:40:42;;;;;;;114.03;45.20;;;;;;;9.94;47.76;96102.81;5054375;28;20567;-78
2022/03/22 09:43:10;;;;;;;29.80;17.40;;;;;;;10.15;47.87;96112.91;5054818;28;20437;-78
2022/03/22 09:45:39;;;;;;;24.23;14.80;;;;;;;10.38;47.16;96103.56;5054288;28;20517;-78
2022/03/22 09:48:08;;;;;;;13.20;10.53;;;;;;;10.20;46.14;96111.69;5054510;28;20467;-79
2022/03/22 09:53:19;;;;;;;17.03;10.83;;;;;;;10.09;46.69;96115.88;5054192;28;20433;-77
2022/03/22 09:55:46;;;;;;;26.53;12.10;;;;;;;10.10;46.81;96104.47;5054334;28;20477;-79
2022/03/22 09:58:14;;;;;;;18.77;11.20;;;;;;;9.94;48.52;96105.44;5054318;28;20442;-79
2022/03/22 10:00:42;;;;;;;18.20;10.00;;;;;;;9.87;46.51;96098.06;5054172;28;20450;-79
2022/03/22 10:03:09;;;;;;;12.43;9.93;;;;;;;9.81;46.45;96099.25;5054144;28;20454;-78
2022/03/22 10:05:36;;;;;;;15.73;9.63;;;;;;;9.82;47.17;96092.25;5054808;28;20477;-79
2022/03/22 10:08:07;;;;;;;15.90;9.70;;;;;;;9.77;46.87;96082.06;5054614;28;20456;-78
2022/03/22 10:10:35;;;;;;;21.97;10.27;;;;;;;9.76;47.35;96080.38;5054142;28;20988;-79
2022/03/22 10:13:04;;;;;;;21.17;10.93;;;;;;;9.76;48.01;96075.13;5053637;28;20457;-78
2022/03/22 10:15:33;;;;;;;13.33;9.33;;;;;;;9.74;47.47;96081.41;5053928;28;20801;-80
2022/03/22 10:18:06;;;;;;;17.20;9.43;;;;;;;9.78;48.60;96072.41;5053360;28;20528;-80
2022/03/22 10:20:35;;;;;;;14.10;9.70;;;;;;;9.81;48.03;96078.28;5053874;28;20442;-79
2022/03/22 10:23:03;;;;;;;16.93;9.33;;;;;;;9.86;47.84;96073.63;5053950;28;20441;-79
2022/03/22 10:25:32;;;;;;;17.17;11.33;;;;;;;9.94;48.92;96062.66;5051995;28;20434;-80
2022/03/22 10:28:01;;;;;;;26.87;12.40;;;;;;;10.00;48.02;96067.50;5053321;28;20483;-78
2022/03/22 10:30:29;;;;;;;20.73;10.67;;;;;;;10.06;47.63;96071.50;5053897;28;20486;-81
2022/03/22 10:32:56;;;;;;;15.00;10.30;;;;;;;10.14;47.58;96061.38;5053456;28;20540;-80
2022/03/22 10:35:26;;;;;;;16.50;11.07;;;;;;;10.11;47.47;96070.25;5053336;28;20438;-79
2022/03/22 10:37:54;;;;;;;14.40;8.83;;;;;;;10.16;46.86;96057.72;5053624;28;20490;-80
2022/03/22 10:40:28;;;;;;;21.80;12.23;;;;;;;10.24;47.43;96052.84;5020237;28;20849;-79
2022/03/22 10:42:58;;;;;;;20.40;9.97;;;;;;;10.34;49.61;96047.84;5053181;28;20442;-77
2022/03/22 10:45:27;;;;;;;12.63;9.87;;;;;;;10.54;47.04;96029.00;5053726;28;20918;-78
2022/03/22 10:47:58;;;;;;;15.27;10.17;;;;;;;10.78;46.29;96034.41;5053230;28;20442;-79
2022/03/22 10:50:27;;;;;;;11.90;8.90;;;;;;;10.89;44.66;96019.69;5052998;28;20820;-79
2022/03/22 10:52:56;;;;;;;20.57;9.37;;;;;;;11.07;44.87;96029.81;5053100;28;20454;-79
2022/03/22 10:55:24;;;;;;;14.87;10.70;;;;;;;11.28;43.74;96021.41;5052980;28;20994;-80
2022/03/22 10:57:54;;;;;;;13.53;9.93;;;;;;;11.15;44.94;96038.00;5052791;28;20473;-78
2022/03/22 11:00:24;;;;;;;20.33;10.67;;;;;;;11.09;44.23;96027.06;5053015;28;20460;-79
2022/03/22 11:02:53;;;;;;;12.10;9.40;;;;;;;11.20;44.46;96018.44;5053109;28;20548;-79
2022/03/22 11:05:21;;;;;;;15.27;9.37;;;;;;;11.36;43.67;96024.31;5052606;28;20472;-80
2022/03/22 11:07:50;;;;;;;16.80;10.70;;;;;;;11.31;43.80;96016.75;5034667;28;20441;-79
2022/03/22 11:10:19;;;;;;;21.43;11.90;;;;;;;11.41;44.28;96016.94;5053042;28;20568;-78
2022/03/22 11:12:47;;;;;;;12.37;10.67;;;;;;;11.52;43.33;96011.75;5052851;28;20473;-80
2022/03/22 11:15:15;;;;;;;19.20;11.27;;;;;;;11.65;43.41;96019.66;5052859;28;20430;-79
2022/03/22 11:17:44;;;;;;;17.70;10.20;;;;;;;11.62;42.77;96015.44;5052452;28;20445;-79
2022/03/22 11:20:14;;;;;;;12.87;8.63;;;;;;;11.37;43.95;95997.09;5052396;28;20442;-79
2022/03/22 11:22:52;;;;;;;15.80;9.80;;;;;;;11.31;43.15;96001.00;5052826;28;20540;-78
2022/03/22 11:25:20;;;;;;;11.63;10.40;;;;;;;11.47;43.40;96000.75;5052918;28;20449;-79
2022/03/22 11:28:04;;;;;;;21.03;11.30;;;;;;;11.44;44.13;95988.66;5053243;28;20429;-79
2022/03/22 11:30:31;;;;;;;15.27;9.00;;;;;;;11.49;43.44;95977.81;5053561;28;20547;-80
2022/03/22 11:35:52;;;;;;;13.93;10.00;;;;;;;11.72;42.30;95966.50;5057034;28;20952;-78
2022/03/22 11:38:42;;;;;;;24.13;9.70;;;;;;;11.64;41.81;95968.00;5056699;28;20444;-79
2022/03/22 11:44:12;;;;;;;12.13;9.10;;;;;;;11.68;42.38;95965.03;5056585;28;20424;-79
2022/03/22 11:46:39;;;;;;;15.27;8.90;;;;;;;11.60;41.76;95964.78;5056812;28;20434;-79
2022/03/22 11:49:18;;;;;;;15.27;10.33;;;;;;;11.38;42.68;95952.31;5056541;28;20450;-79
2022/03/22 11:51:49;;;;;;;12.53;9.27;;;;;;;11.56;42.55;95957.19;5056485;28;20484;-79
2022/03/22 11:54:18;;;;;;;14.63;9.70;;;;;;;11.56;41.93;95941.41;5056352;28;20536;-79
2022/03/22 11:56:49;;;;;;;13.17;8.87;;;;;;;11.49;42.01;95948.91;5056327;28;20465;-79
2022/03/22 11:59:17;;;;;;;10.23;7.80;;;;;;;11.51;42.30;95940.91;5056405;28;20460;-78
2022/03/22 12:01:56;;;;;;;11.60;7.97;;;;;;;11.59;41.82;95936.81;5056027;28;20468;-79
2022/03/22 12:04:34;;;;;;;13.70;9.63;;;;;;;11.65;41.99;95931.09;5056595;28;20460;-79
2022/03/22 12:07:01;;;;;;;15.40;9.00;;;;;;;11.77;41.93;95929.34;5056181;28;20445;-79
2022/03/22 12:09:30;;;;;;;12.20;8.80;;;;;;;11.81;40.21;95924.72;5056108;28;20461;-79
2022/03/22 12:11:58;;;;;;;15.30;9.30;;;;;;;11.50;40.58;95916.41;5055930;28;20489;-79
2022/03/22 12:14:27;;;;;;;13.30;9.00;;;;;;;11.36;41.77;95911.31;5055724;28;20449;-79
2022/03/22 12:16:54;;;;;;;12.77;8.90;;;;;;;11.38;42.18;95917.31;5055788;28;20503;-79
2022/03/22 12:19:28;;;;;;;20.03;8.90;;;;;;;11.21;41.47;95907.16;5055696;28;20445;-79
2022/03/22 12:21:55;;;;;;;11.23;9.60;;;;;;;11.17;41.48;95907.38;5055937;28;20470;-79
2022/03/22 12:24:23;;;;;;;14.20;9.77;;;;;;;11.11;40.77;95899.94;5037169;28;20935;-78
2022/03/22 12:26:52;;;;;;;13.90;9.70;;;;;;;11.30;42.10;95899.47;5037360;28;20437;-78
2022/03/22 12:29:21;;;;;;;21.47;9.57;;;;;;;11.40;41.39;95897.84;5055485;28;20442;-79
2022/03/22 12:31:49;;;;;;;15.23;9.80;;;;;;;11.39;40.71;95896.16;5055770;28;20489;-78
2022/03/22 12:34:15;;;;;;;15.30;9.10;;;;;;;11.28;41.31;95890.03;5055912;28;20503;-79
2022/03/22 12:36:43;;;;;;;13.03;9.73;;;;;;;11.41;41.75;95882.91;5055391;28;20446;-78
2022/03/22 12:39:10;;;;;;;19.17;15.40;;;;;;;11.54;41.01;95870.56;5055366;28;20442;-79
2022/03/22 12:41:37;;;;;;;12.13;9.70;;;;;;;11.73;38.88;95877.94;5036630;28;20965;-79